sensor_id;sensor_type;location;lat;lon;timestamp;P1;durP1;ratioP1;P2;durP2;ratioP2
69207;SDS011;56321;47.662;8.878;2023-03-01T00:01:09;19.42;;;10.07;;
69207;SDS011;56321;47.662;8.878;2023-03-01T00:03:36;18.42;;;9.50;;
69207;SDS011;56321;47.662;8.878;2023-03-01T00:06:02;19.90;;;10.40;;
69207;SDS011;56321;47.662;8.878;2023-03-01T00:08:29;20.52;;;10.30;;
69207;SDS011;56321;47.662;8.878;2023-03-01T00:13:26;18.30;;;9.10;;
69207;SDS011;56321;47.662;8.878;2023-03-01T00:15:52;20.37;;;9.87;;
69207;SDS011;56321;47.662;8.878;2023-03-01T00:18:17;19.17;;;9.63;;
69207;SDS011;56321;47.662;8.878;2023-03-01T00:20:48;19.50;;;10.20;;
69207;SDS011;56321;47.662;8.878;2023-03-01T00:23:14;19.70;;;9.95;;
69207;SDS011;56321;47.662;8.878;2023-03-01T00:25:43;19.90;;;10.00;;
69207;SDS011;56321;47.662;8.878;2023-03-01T00:28:08;19.10;;;9.95;;
69207;SDS011;56321;47.662;8.878;2023-03-01T00:30:34;20.37;;;9.87;;
69207;SDS011;56321;47.662;8.878;2023-03-01T00:32:59;19.47;;;9.87;;
69207;SDS011;56321;47.662;8.878;2023-03-01T00:35:24;20.20;;;9.60;;
69207;SDS011;56321;47.662;8.878;2023-03-01T00:37:50;19.67;;;9.47;;
69207;SDS011;56321;47.662;8.878;2023-03-01T00:40:23;20.92;;;10.57;;
69207;SDS011;56321;47.662;8.878;2023-03-01T00:42:49;21.97;;;10.40;;
69207;SDS011;56321;47.662;8.878;2023-03-01T00:45:14;20.73;;;10.30;;
69207;SDS011;56321;47.662;8.878;2023-03-01T00:47:40;21.30;;;10.23;;
69207;SDS011;56321;47.662;8.878;2023-03-01T00:50:05;20.23;;;10.10;;
69207;SDS011;56321;47.662;8.878;2023-03-01T00:52:31;20.33;;;9.85;;
69207;SDS011;56321;47.662;8.878;2023-03-01T00:54:56;19.77;;;9.80;;
69207;SDS011;56321;47.662;8.878;2023-03-01T00:57:22;19.98;;;9.88;;
69207;SDS011;56321;47.662;8.878;2023-03-01T00:59:48;19.43;;;9.70;;
69207;SDS011;56321;47.662;8.878;2023-03-01T01:02:13;20.30;;;10.27;;
69207;SDS011;56321;47.662;8.878;2023-03-01T01:04:38;22.80;;;10.40;;
69207;SDS011;56321;47.662;8.878;2023-03-01T01:07:04;19.33;;;10.07;;
69207;SDS011;56321;47.662;8.878;2023-03-01T01:09:30;20.48;;;10.25;;
69207;SDS011;56321;47.662;8.878;2023-03-01T01:11:56;22.80;;;11.40;;
69207;SDS011;56321;47.662;8.878;2023-03-01T01:14:21;25.07;;;11.87;;
69207;SDS011;56321;47.662;8.878;2023-03-01T01:16:46;24.70;;;12.17;;
69207;SDS011;56321;47.662;8.878;2023-03-01T01:19:12;22.73;;;10.85;;
69207;SDS011;56321;47.662;8.878;2023-03-01T01:21:38;21.77;;;10.67;;
69207;SDS011;56321;47.662;8.878;2023-03-01T01:24:04;23.30;;;11.27;;
69207;SDS011;56321;47.662;8.878;2023-03-01T01:26:31;25.40;;;12.20;;
69207;SDS011;56321;47.662;8.878;2023-03-01T01:28:59;24.88;;;12.00;;
69207;SDS011;56321;47.662;8.878;2023-03-01T01:31:25;22.45;;;11.38;;
69207;SDS011;56321;47.662;8.878;2023-03-01T01:33:51;23.88;;;11.90;;
69207;SDS011;56321;47.662;8.878;2023-03-01T01:36:17;26.30;;;12.85;;
69207;SDS011;56321;47.662;8.878;2023-03-01T01:38:43;25.30;;;12.53;;
69207;SDS011;56321;47.662;8.878;2023-03-01T01:41:09;24.87;;;12.37;;
69207;SDS011;56321;47.662;8.878;2023-03-01T01:43:38;25.58;;;12.85;;
69207;SDS011;56321;47.662;8.878;2023-03-01T01:49:00;24.80;;;12.00;;
69207;SDS011;56321;47.662;8.878;2023-03-01T01:51:29;25.97;;;12.10;;
69207;SDS011;56321;47.662;8.878;2023-03-01T01:54:03;26.73;;;12.80;;
69207;SDS011;56321;47.662;8.878;2023-03-01T01:56:36;25.92;;;12.73;;
69207;SDS011;56321;47.662;8.878;2023-03-01T01:59:02;25.55;;;12.60;;
69207;SDS011;56321;47.662;8.878;2023-03-01T02:01:27;25.67;;;12.43;;
69207;SDS011;56321;47.662;8.878;2023-03-01T02:03:53;25.83;;;12.77;;
69207;SDS011;56321;47.662;8.878;2023-03-01T02:06:22;23.67;;;11.80;;
69207;SDS011;56321;47.662;8.878;2023-03-01T02:09:06;25.60;;;11.93;;
69207;SDS011;56321;47.662;8.878;2023-03-01T02:11:36;26.10;;;12.90;;
69207;SDS011;56321;47.662;8.878;2023-03-01T02:14:02;25.42;;;12.07;;
69207;SDS011;56321;47.662;8.878;2023-03-01T02:16:28;25.08;;;12.30;;
69207;SDS011;56321;47.662;8.878;2023-03-01T02:18:54;26.63;;;12.20;;
69207;SDS011;56321;47.662;8.878;2023-03-01T02:23:55;26.08;;;12.18;;
69207;SDS011;56321;47.662;8.878;2023-03-01T02:28:58;26.20;;;12.20;;
69207;SDS011;56321;47.662;8.878;2023-03-01T02:31:24;25.60;;;12.55;;
69207;SDS011;56321;47.662;8.878;2023-03-01T02:34:08;25.45;;;12.23;;
69207;SDS011;56321;47.662;8.878;2023-03-01T02:36:38;24.73;;;11.73;;
69207;SDS011;56321;47.662;8.878;2023-03-01T02:39:06;26.60;;;13.02;;
69207;SDS011;56321;47.662;8.878;2023-03-01T02:41:39;26.17;;;12.55;;
69207;SDS011;56321;47.662;8.878;2023-03-01T02:44:07;24.83;;;12.65;;
69207;SDS011;56321;47.662;8.878;2023-03-01T02:46:33;26.17;;;12.50;;
69207;SDS011;56321;47.662;8.878;2023-03-01T02:48:59;28.48;;;13.25;;
69207;SDS011;56321;47.662;8.878;2023-03-01T02:56:41;24.40;;;12.10;;
69207;SDS011;56321;47.662;8.878;2023-03-01T02:59:09;26.38;;;12.50;;
69207;SDS011;56321;47.662;8.878;2023-03-01T03:01:35;25.40;;;12.48;;
69207;SDS011;56321;47.662;8.878;2023-03-01T03:04:07;26.77;;;12.67;;
69207;SDS011;56321;47.662;8.878;2023-03-01T03:06:35;24.25;;;11.98;;
69207;SDS011;56321;47.662;8.878;2023-03-01T03:09:01;24.55;;;11.98;;
69207;SDS011;56321;47.662;8.878;2023-03-01T03:11:28;25.08;;;12.35;;
69207;SDS011;56321;47.662;8.878;2023-03-01T03:13:54;24.97;;;11.80;;
69207;SDS011;56321;47.662;8.878;2023-03-01T03:16:19;25.33;;;12.15;;
69207;SDS011;56321;47.662;8.878;2023-03-01T03:18:45;26.70;;;12.70;;
69207;SDS011;56321;47.662;8.878;2023-03-01T03:21:11;26.83;;;12.45;;
69207;SDS011;56321;47.662;8.878;2023-03-01T03:23:37;25.27;;;12.40;;
69207;SDS011;56321;47.662;8.878;2023-03-01T03:26:03;24.07;;;11.40;;
69207;SDS011;56321;47.662;8.878;2023-03-01T03:28:30;24.88;;;11.98;;
69207;SDS011;56321;47.662;8.878;2023-03-01T03:30:56;25.42;;;12.73;;
69207;SDS011;56321;47.662;8.878;2023-03-01T03:33:21;23.13;;;11.23;;
69207;SDS011;56321;47.662;8.878;2023-03-01T03:35:47;23.50;;;11.47;;
69207;SDS011;56321;47.662;8.878;2023-03-01T03:38:14;24.70;;;11.32;;
69207;SDS011;56321;47.662;8.878;2023-03-01T03:40:45;27.07;;;12.57;;
69207;SDS011;56321;47.662;8.878;2023-03-01T03:43:14;27.42;;;12.48;;
69207;SDS011;56321;47.662;8.878;2023-03-01T03:45:40;25.13;;;11.63;;
69207;SDS011;56321;47.662;8.878;2023-03-01T03:48:08;26.27;;;12.07;;
69207;SDS011;56321;47.662;8.878;2023-03-01T03:50:35;25.38;;;12.05;;
69207;SDS011;56321;47.662;8.878;2023-03-01T03:53:01;25.80;;;11.80;;
69207;SDS011;56321;47.662;8.878;2023-03-01T03:55:28;24.67;;;11.48;;
69207;SDS011;56321;47.662;8.878;2023-03-01T03:57:56;24.90;;;11.63;;
69207;SDS011;56321;47.662;8.878;2023-03-01T04:00:23;23.98;;;11.32;;
69207;SDS011;56321;47.662;8.878;2023-03-01T04:02:49;24.60;;;11.77;;
69207;SDS011;56321;47.662;8.878;2023-03-01T04:05:16;27.00;;;12.88;;
69207;SDS011;56321;47.662;8.878;2023-03-01T04:07:43;24.10;;;11.68;;
69207;SDS011;56321;47.662;8.878;2023-03-01T04:10:09;24.60;;;11.77;;
69207;SDS011;56321;47.662;8.878;2023-03-01T04:12:37;25.67;;;12.50;;
69207;SDS011;56321;47.662;8.878;2023-03-01T04:15:03;24.37;;;11.53;;
69207;SDS011;56321;47.662;8.878;2023-03-01T04:17:39;23.27;;;11.25;;
69207;SDS011;56321;47.662;8.878;2023-03-01T04:20:06;23.58;;;11.77;;
69207;SDS011;56321;47.662;8.878;2023-03-01T04:22:34;22.73;;;11.23;;
69207;SDS011;56321;47.662;8.878;2023-03-01T04:25:00;25.00;;;11.67;;
69207;SDS011;56321;47.662;8.878;2023-03-01T04:27:31;24.08;;;11.68;;
69207;SDS011;56321;47.662;8.878;2023-03-01T04:30:00;24.20;;;11.20;;
69207;SDS011;56321;47.662;8.878;2023-03-01T04:32:27;23.48;;;10.93;;
69207;SDS011;56321;47.662;8.878;2023-03-01T04:34:52;23.83;;;11.40;;
69207;SDS011;56321;47.662;8.878;2023-03-01T04:37:17;23.73;;;10.77;;
69207;SDS011;56321;47.662;8.878;2023-03-01T04:39:43;23.73;;;11.37;;
69207;SDS011;56321;47.662;8.878;2023-03-01T04:42:10;24.75;;;12.15;;
69207;SDS011;56321;47.662;8.878;2023-03-01T04:44:36;25.45;;;12.20;;
69207;SDS011;56321;47.662;8.878;2023-03-01T04:47:01;23.87;;;11.50;;
69207;SDS011;56321;47.662;8.878;2023-03-01T04:49:26;24.77;;;11.83;;
69207;SDS011;56321;47.662;8.878;2023-03-01T04:51:52;25.33;;;12.20;;
69207;SDS011;56321;47.662;8.878;2023-03-01T04:54:17;24.13;;;11.47;;
69207;SDS011;56321;47.662;8.878;2023-03-01T04:56:42;21.53;;;10.17;;
69207;SDS011;56321;47.662;8.878;2023-03-01T04:59:08;23.70;;;11.73;;
69207;SDS011;56321;47.662;8.878;2023-03-01T05:01:34;24.77;;;11.45;;
69207;SDS011;56321;47.662;8.878;2023-03-01T05:04:00;25.63;;;12.37;;
69207;SDS011;56321;47.662;8.878;2023-03-01T05:06:28;25.55;;;11.57;;
69207;SDS011;56321;47.662;8.878;2023-03-01T05:08:53;23.75;;;11.55;;
69207;SDS011;56321;47.662;8.878;2023-03-01T05:11:19;24.17;;;11.43;;
69207;SDS011;56321;47.662;8.878;2023-03-01T05:13:44;26.40;;;12.47;;
69207;SDS011;56321;47.662;8.878;2023-03-01T05:16:10;25.45;;;12.07;;
69207;SDS011;56321;47.662;8.878;2023-03-01T05:18:36;25.40;;;12.20;;
69207;SDS011;56321;47.662;8.878;2023-03-01T05:21:03;25.35;;;11.88;;
69207;SDS011;56321;47.662;8.878;2023-03-01T05:23:31;25.58;;;12.07;;
69207;SDS011;56321;47.662;8.878;2023-03-01T05:25:57;23.03;;;11.33;;
69207;SDS011;56321;47.662;8.878;2023-03-01T05:28:24;25.42;;;12.27;;
69207;SDS011;56321;47.662;8.878;2023-03-01T05:30:50;27.77;;;12.95;;
69207;SDS011;56321;47.662;8.878;2023-03-01T05:33:16;26.15;;;12.70;;
69207;SDS011;56321;47.662;8.878;2023-03-01T05:35:42;26.50;;;12.63;;
69207;SDS011;56321;47.662;8.878;2023-03-01T05:38:09;25.40;;;12.00;;
69207;SDS011;56321;47.662;8.878;2023-03-01T05:40:38;26.23;;;12.38;;
69207;SDS011;56321;47.662;8.878;2023-03-01T05:43:05;24.90;;;12.20;;
69207;SDS011;56321;47.662;8.878;2023-03-01T05:45:30;25.07;;;12.23;;
69207;SDS011;56321;47.662;8.878;2023-03-01T05:47:57;25.15;;;11.88;;
69207;SDS011;56321;47.662;8.878;2023-03-01T05:50:27;23.75;;;11.35;;
69207;SDS011;56321;47.662;8.878;2023-03-01T05:52:57;26.10;;;12.90;;
69207;SDS011;56321;47.662;8.878;2023-03-01T05:55:24;25.53;;;12.30;;
69207;SDS011;56321;47.662;8.878;2023-03-01T05:57:50;24.63;;;11.80;;
69207;SDS011;56321;47.662;8.878;2023-03-01T06:00:17;24.50;;;12.07;;
69207;SDS011;56321;47.662;8.878;2023-03-01T06:02:44;26.20;;;11.98;;
69207;SDS011;56321;47.662;8.878;2023-03-01T06:05:11;26.73;;;13.30;;
69207;SDS011;56321;47.662;8.878;2023-03-01T06:07:37;27.55;;;13.07;;
69207;SDS011;56321;47.662;8.878;2023-03-01T06:10:03;26.77;;;13.40;;
69207;SDS011;56321;47.662;8.878;2023-03-01T06:12:33;25.85;;;12.30;;
69207;SDS011;56321;47.662;8.878;2023-03-01T06:15:00;27.17;;;12.30;;
69207;SDS011;56321;47.662;8.878;2023-03-01T06:17:28;27.67;;;13.40;;
69207;SDS011;56321;47.662;8.878;2023-03-01T06:19:54;26.92;;;13.55;;
69207;SDS011;56321;47.662;8.878;2023-03-01T06:22:20;27.27;;;12.97;;
69207;SDS011;56321;47.662;8.878;2023-03-01T06:24:45;26.87;;;13.33;;
69207;SDS011;56321;47.662;8.878;2023-03-01T06:27:10;24.83;;;12.67;;
69207;SDS011;56321;47.662;8.878;2023-03-01T06:29:36;27.53;;;12.70;;
69207;SDS011;56321;47.662;8.878;2023-03-01T06:32:02;26.80;;;12.83;;
69207;SDS011;56321;47.662;8.878;2023-03-01T06:34:27;26.38;;;12.75;;
69207;SDS011;56321;47.662;8.878;2023-03-01T06:36:53;26.73;;;12.30;;
69207;SDS011;56321;47.662;8.878;2023-03-01T06:39:18;27.57;;;13.00;;
69207;SDS011;56321;47.662;8.878;2023-03-01T06:41:44;24.63;;;12.00;;
69207;SDS011;56321;47.662;8.878;2023-03-01T06:44:09;27.40;;;12.32;;
69207;SDS011;56321;47.662;8.878;2023-03-01T06:46:35;25.87;;;12.10;;
69207;SDS011;56321;47.662;8.878;2023-03-01T06:49:01;26.70;;;12.43;;
69207;SDS011;56321;47.662;8.878;2023-03-01T06:51:29;26.77;;;11.82;;
69207;SDS011;56321;47.662;8.878;2023-03-01T06:53:55;26.93;;;11.90;;
69207;SDS011;56321;47.662;8.878;2023-03-01T06:56:20;25.03;;;11.73;;
69207;SDS011;56321;47.662;8.878;2023-03-01T06:58:45;25.10;;;12.07;;
69207;SDS011;56321;47.662;8.878;2023-03-01T07:01:10;26.20;;;12.53;;
69207;SDS011;56321;47.662;8.878;2023-03-01T07:03:36;27.10;;;12.60;;
69207;SDS011;56321;47.662;8.878;2023-03-01T07:06:01;26.83;;;12.00;;
69207;SDS011;56321;47.662;8.878;2023-03-01T07:08:26;26.08;;;11.95;;
69207;SDS011;56321;47.662;8.878;2023-03-01T07:10:58;24.23;;;11.97;;
69207;SDS011;56321;47.662;8.878;2023-03-01T07:13:24;24.73;;;11.80;;
69207;SDS011;56321;47.662;8.878;2023-03-01T07:15:49;26.50;;;12.73;;
69207;SDS011;56321;47.662;8.878;2023-03-01T07:18:14;26.27;;;12.57;;
69207;SDS011;56321;47.662;8.878;2023-03-01T07:20:40;26.07;;;12.30;;
69207;SDS011;56321;47.662;8.878;2023-03-01T07:23:05;26.27;;;12.07;;
69207;SDS011;56321;47.662;8.878;2023-03-01T07:25:31;26.90;;;13.10;;
69207;SDS011;56321;47.662;8.878;2023-03-01T07:27:57;24.10;;;11.43;;
69207;SDS011;56321;47.662;8.878;2023-03-01T07:30:23;28.77;;;13.03;;
69207;SDS011;56321;47.662;8.878;2023-03-01T07:32:51;25.55;;;12.23;;
69207;SDS011;56321;47.662;8.878;2023-03-01T07:35:16;25.77;;;12.68;;
69207;SDS011;56321;47.662;8.878;2023-03-01T07:37:42;25.77;;;11.70;;
69207;SDS011;56321;47.662;8.878;2023-03-01T07:40:08;25.37;;;11.73;;
69207;SDS011;56321;47.662;8.878;2023-03-01T07:42:34;24.02;;;12.02;;
69207;SDS011;56321;47.662;8.878;2023-03-01T07:44:59;25.23;;;12.03;;
69207;SDS011;56321;47.662;8.878;2023-03-01T07:47:24;25.17;;;11.93;;
69207;SDS011;56321;47.662;8.878;2023-03-01T07:49:50;23.80;;;11.67;;
69207;SDS011;56321;47.662;8.878;2023-03-01T07:52:15;24.33;;;11.63;;
69207;SDS011;56321;47.662;8.878;2023-03-01T07:54:42;26.13;;;12.47;;
69207;SDS011;56321;47.662;8.878;2023-03-01T07:57:09;27.42;;;12.95;;
69207;SDS011;56321;47.662;8.878;2023-03-01T07:59:34;27.67;;;12.77;;
69207;SDS011;56321;47.662;8.878;2023-03-01T08:01:59;25.83;;;13.20;;
69207;SDS011;56321;47.662;8.878;2023-03-01T08:04:25;25.30;;;11.47;;
69207;SDS011;56321;47.662;8.878;2023-03-01T08:06:51;26.77;;;12.38;;
69207;SDS011;56321;47.662;8.878;2023-03-01T08:09:17;26.58;;;12.25;;
69207;SDS011;56321;47.662;8.878;2023-03-01T08:11:42;26.57;;;11.93;;
69207;SDS011;56321;47.662;8.878;2023-03-01T08:14:08;27.07;;;12.47;;
69207;SDS011;56321;47.662;8.878;2023-03-01T08:16:33;26.77;;;12.20;;
69207;SDS011;56321;47.662;8.878;2023-03-01T08:19:03;25.27;;;12.10;;
69207;SDS011;56321;47.662;8.878;2023-03-01T08:21:33;22.90;;;11.20;;
69207;SDS011;56321;47.662;8.878;2023-03-01T08:24:00;24.17;;;12.00;;
69207;SDS011;56321;47.662;8.878;2023-03-01T08:26:28;25.80;;;12.00;;
69207;SDS011;56321;47.662;8.878;2023-03-01T08:28:54;23.98;;;11.80;;
69207;SDS011;56321;47.662;8.878;2023-03-01T08:31:26;25.37;;;11.97;;
69207;SDS011;56321;47.662;8.878;2023-03-01T08:33:55;25.45;;;12.13;;
69207;SDS011;56321;47.662;8.878;2023-03-01T08:36:23;27.33;;;13.10;;
69207;SDS011;56321;47.662;8.878;2023-03-01T08:38:49;29.88;;;13.75;;
69207;SDS011;56321;47.662;8.878;2023-03-01T08:41:15;30.60;;;14.15;;
69207;SDS011;56321;47.662;8.878;2023-03-01T08:43:41;27.40;;;13.57;;
69207;SDS011;56321;47.662;8.878;2023-03-01T08:46:06;28.33;;;13.50;;
69207;SDS011;56321;47.662;8.878;2023-03-01T08:48:32;25.03;;;12.00;;
69207;SDS011;56321;47.662;8.878;2023-03-01T08:50:57;23.10;;;11.23;;
69207;SDS011;56321;47.662;8.878;2023-03-01T08:53:32;22.95;;;11.57;;
69207;SDS011;56321;47.662;8.878;2023-03-01T08:55:59;24.73;;;11.83;;
69207;SDS011;56321;47.662;8.878;2023-03-01T08:58:25;25.35;;;12.20;;
69207;SDS011;56321;47.662;8.878;2023-03-01T09:00:50;23.40;;;11.33;;
69207;SDS011;56321;47.662;8.878;2023-03-01T09:03:15;27.70;;;12.67;;
69207;SDS011;56321;47.662;8.878;2023-03-01T09:05:41;24.40;;;11.67;;
69207;SDS011;56321;47.662;8.878;2023-03-01T09:08:06;24.50;;;12.03;;
69207;SDS011;56321;47.662;8.878;2023-03-01T09:10:36;24.95;;;11.90;;
69207;SDS011;56321;47.662;8.878;2023-03-01T09:13:02;25.05;;;11.90;;
69207;SDS011;56321;47.662;8.878;2023-03-01T09:15:28;23.17;;;11.17;;
69207;SDS011;56321;47.662;8.878;2023-03-01T09:17:53;25.80;;;11.80;;
69207;SDS011;56321;47.662;8.878;2023-03-01T09:20:18;22.57;;;11.23;;
69207;SDS011;56321;47.662;8.878;2023-03-01T09:22:43;24.53;;;11.93;;
69207;SDS011;56321;47.662;8.878;2023-03-01T09:25:09;24.73;;;12.35;;
69207;SDS011;56321;47.662;8.878;2023-03-01T09:27:34;24.47;;;11.63;;
69207;SDS011;56321;47.662;8.878;2023-03-01T09:30:00;21.07;;;10.63;;
69207;SDS011;56321;47.662;8.878;2023-03-01T09:32:25;25.00;;;11.97;;
69207;SDS011;56321;47.662;8.878;2023-03-01T09:34:50;22.63;;;11.40;;
69207;SDS011;56321;47.662;8.878;2023-03-01T09:37:32;25.30;;;11.93;;
69207;SDS011;56321;47.662;8.878;2023-03-01T09:39:58;24.67;;;11.60;;
69207;SDS011;56321;47.662;8.878;2023-03-01T09:42:23;22.73;;;11.97;;
69207;SDS011;56321;47.662;8.878;2023-03-01T09:44:51;22.70;;;12.00;;
69207;SDS011;56321;47.662;8.878;2023-03-01T09:47:23;24.42;;;11.70;;
69207;SDS011;56321;47.662;8.878;2023-03-01T09:52:43;24.15;;;11.48;;
69207;SDS011;56321;47.662;8.878;2023-03-01T10:01:33;25.52;;;12.05;;
69207;SDS011;56321;47.662;8.878;2023-03-01T10:09:46;24.38;;;11.43;;
69207;SDS011;56321;47.662;8.878;2023-03-01T10:12:14;23.40;;;10.70;;
69207;SDS011;56321;47.662;8.878;2023-03-01T10:14:54;23.48;;;11.73;;
69207;SDS011;56321;47.662;8.878;2023-03-01T10:20:17;23.33;;;11.13;;
69207;SDS011;56321;47.662;8.878;2023-03-01T10:22:51;23.25;;;11.40;;
69207;SDS011;56321;47.662;8.878;2023-03-01T10:26:00;26.37;;;11.90;;
69207;SDS011;56321;47.662;8.878;2023-03-01T10:28:25;22.45;;;10.88;;
69207;SDS011;56321;47.662;8.878;2023-03-01T10:30:56;24.58;;;11.95;;
69207;SDS011;56321;47.662;8.878;2023-03-01T10:33:33;25.10;;;11.45;;
69207;SDS011;56321;47.662;8.878;2023-03-01T10:36:02;23.42;;;11.13;;
69207;SDS011;56321;47.662;8.878;2023-03-01T10:38:28;24.07;;;11.67;;
69207;SDS011;56321;47.662;8.878;2023-03-01T10:40:56;24.30;;;11.52;;
69207;SDS011;56321;47.662;8.878;2023-03-01T10:43:24;25.17;;;11.80;;
69207;SDS011;56321;47.662;8.878;2023-03-01T10:45:51;23.60;;;11.60;;
69207;SDS011;56321;47.662;8.878;2023-03-01T10:48:19;24.80;;;11.48;;
69207;SDS011;56321;47.662;8.878;2023-03-01T10:50:47;24.40;;;12.15;;
69207;SDS011;56321;47.662;8.878;2023-03-01T10:56:13;21.77;;;10.95;;
69207;SDS011;56321;47.662;8.878;2023-03-01T10:58:41;23.37;;;11.17;;
69207;SDS011;56321;47.662;8.878;2023-03-01T11:04:02;24.13;;;12.10;;
69207;SDS011;56321;47.662;8.878;2023-03-01T11:06:36;22.50;;;10.90;;
69207;SDS011;56321;47.662;8.878;2023-03-01T11:11:43;24.48;;;12.00;;
69207;SDS011;56321;47.662;8.878;2023-03-01T11:16:38;23.00;;;10.82;;
69207;SDS011;56321;47.662;8.878;2023-03-01T11:21:33;23.60;;;11.20;;
69207;SDS011;56321;47.662;8.878;2023-03-01T11:24:05;23.92;;;10.85;;
69207;SDS011;56321;47.662;8.878;2023-03-01T11:26:37;22.83;;;11.23;;
69207;SDS011;56321;47.662;8.878;2023-03-01T11:29:06;24.42;;;11.68;;
69207;SDS011;56321;47.662;8.878;2023-03-01T11:31:40;24.75;;;12.27;;
69207;SDS011;56321;47.662;8.878;2023-03-01T11:34:17;27.73;;;13.02;;
69207;SDS011;56321;47.662;8.878;2023-03-01T11:36:54;36.58;;;16.27;;
69207;SDS011;56321;47.662;8.878;2023-03-01T11:42:21;24.73;;;12.10;;
69207;SDS011;56321;47.662;8.878;2023-03-01T11:44:54;24.77;;;11.35;;
69207;SDS011;56321;47.662;8.878;2023-03-01T12:02:09;24.75;;;11.73;;
69207;SDS011;56321;47.662;8.878;2023-03-01T12:07:07;26.30;;;12.80;;
69207;SDS011;56321;47.662;8.878;2023-03-01T12:09:58;25.30;;;12.32;;
69207;SDS011;56321;47.662;8.878;2023-03-01T12:23:50;23.55;;;11.85;;
69207;SDS011;56321;47.662;8.878;2023-03-01T12:29:38;22.65;;;11.30;;
69207;SDS011;56321;47.662;8.878;2023-03-01T12:32:18;22.55;;;11.23;;
69207;SDS011;56321;47.662;8.878;2023-03-01T12:51:08;23.25;;;11.43;;
69207;SDS011;56321;47.662;8.878;2023-03-01T12:53:43;26.23;;;11.80;;
69207;SDS011;56321;47.662;8.878;2023-03-01T12:56:22;25.02;;;11.93;;
69207;SDS011;56321;47.662;8.878;2023-03-01T13:09:54;22.45;;;11.30;;
69207;SDS011;56321;47.662;8.878;2023-03-01T13:17:58;26.58;;;11.90;;
69207;SDS011;56321;47.662;8.878;2023-03-01T13:20:25;24.80;;;11.43;;
69207;SDS011;56321;47.662;8.878;2023-03-01T13:23:06;21.45;;;10.50;;
69207;SDS011;56321;47.662;8.878;2023-03-01T13:31:56;26.00;;;11.40;;
69207;SDS011;56321;47.662;8.878;2023-03-01T13:33:56;23.02;;;11.77;;
69207;SDS011;56321;47.662;8.878;2023-03-01T13:41:50;24.40;;;11.50;;
69207;SDS011;56321;47.662;8.878;2023-03-01T13:46:51;21.30;;;10.57;;
69207;SDS011;56321;47.662;8.878;2023-03-01T13:49:21;22.88;;;11.10;;
69207;SDS011;56321;47.662;8.878;2023-03-01T13:51:50;22.88;;;11.25;;
69207;SDS011;56321;47.662;8.878;2023-03-01T13:54:20;22.67;;;11.10;;
69207;SDS011;56321;47.662;8.878;2023-03-01T13:56:51;23.67;;;11.35;;
69207;SDS011;56321;47.662;8.878;2023-03-01T13:59:17;23.00;;;11.82;;
69207;SDS011;56321;47.662;8.878;2023-03-01T14:01:51;24.33;;;11.33;;
69207;SDS011;56321;47.662;8.878;2023-03-01T14:04:25;23.33;;;11.80;;
69207;SDS011;56321;47.662;8.878;2023-03-01T14:07:08;22.70;;;11.15;;
69207;SDS011;56321;47.662;8.878;2023-03-01T14:09:44;25.13;;;11.55;;
69207;SDS011;56321;47.662;8.878;2023-03-01T14:12:36;21.52;;;11.10;;
69207;SDS011;56321;47.662;8.878;2023-03-01T14:18:14;22.15;;;11.18;;
69207;SDS011;56321;47.662;8.878;2023-03-01T14:20:49;23.20;;;10.90;;
69207;SDS011;56321;47.662;8.878;2023-03-01T14:23:25;23.38;;;11.65;;
69207;SDS011;56321;47.662;8.878;2023-03-01T14:25:55;22.02;;;10.95;;
69207;SDS011;56321;47.662;8.878;2023-03-01T14:30:52;27.60;;;13.98;;
69207;SDS011;56321;47.662;8.878;2023-03-01T14:33:21;32.88;;;19.48;;
69207;SDS011;56321;47.662;8.878;2023-03-01T14:41:09;28.93;;;17.43;;
69207;SDS011;56321;47.662;8.878;2023-03-01T14:43:47;26.02;;;12.52;;
69207;SDS011;56321;47.662;8.878;2023-03-01T14:46:35;24.63;;;12.02;;
69207;SDS011;56321;47.662;8.878;2023-03-01T14:49:03;27.02;;;16.20;;
69207;SDS011;56321;47.662;8.878;2023-03-01T14:51:37;26.33;;;14.50;;
69207;SDS011;56321;47.662;8.878;2023-03-01T14:54:05;25.33;;;12.40;;
69207;SDS011;56321;47.662;8.878;2023-03-01T14:56:47;40.35;;;24.25;;
69207;SDS011;56321;47.662;8.878;2023-03-01T14:59:12;28.33;;;15.77;;
69207;SDS011;56321;47.662;8.878;2023-03-01T15:01:39;26.08;;;13.68;;
69207;SDS011;56321;47.662;8.878;2023-03-01T15:04:06;24.90;;;12.02;;
69207;SDS011;56321;47.662;8.878;2023-03-01T15:06:37;40.83;;;26.87;;
69207;SDS011;56321;47.662;8.878;2023-03-01T15:09:03;28.08;;;16.50;;
69207;SDS011;56321;47.662;8.878;2023-03-01T15:11:30;26.38;;;15.02;;
69207;SDS011;56321;47.662;8.878;2023-03-01T15:13:57;24.10;;;12.70;;
69207;SDS011;56321;47.662;8.878;2023-03-01T15:18:54;31.57;;;19.80;;
69207;SDS011;56321;47.662;8.878;2023-03-01T15:21:34;23.98;;;11.38;;
69207;SDS011;56321;47.662;8.878;2023-03-01T15:26:37;29.92;;;19.75;;
69207;SDS011;56321;47.662;8.878;2023-03-01T15:29:10;58.63;;;46.25;;
69207;SDS011;56321;47.662;8.878;2023-03-01T15:32:02;26.50;;;15.27;;
69207;SDS011;56321;47.662;8.878;2023-03-01T15:34:30;23.83;;;11.93;;
69207;SDS011;56321;47.662;8.878;2023-03-01T15:37:03;27.02;;;14.00;;
69207;SDS011;56321;47.662;8.878;2023-03-01T15:39:42;25.10;;;13.02;;
69207;SDS011;56321;47.662;8.878;2023-03-01T15:45:10;26.37;;;13.70;;
69207;SDS011;56321;47.662;8.878;2023-03-01T15:47:52;24.50;;;12.43;;
69207;SDS011;56321;47.662;8.878;2023-03-01T15:50:36;23.30;;;11.40;;
69207;SDS011;56321;47.662;8.878;2023-03-01T15:53:05;21.70;;;11.32;;
69207;SDS011;56321;47.662;8.878;2023-03-01T15:55:36;23.15;;;12.23;;
69207;SDS011;56321;47.662;8.878;2023-03-01T15:58:05;23.67;;;12.40;;
69207;SDS011;56321;47.662;8.878;2023-03-01T16:00:35;31.65;;;19.65;;
69207;SDS011;56321;47.662;8.878;2023-03-01T16:03:00;26.93;;;12.50;;
69207;SDS011;56321;47.662;8.878;2023-03-01T16:05:30;34.03;;;23.80;;
69207;SDS011;56321;47.662;8.878;2023-03-01T16:07:57;26.35;;;13.30;;
69207;SDS011;56321;47.662;8.878;2023-03-01T16:10:22;31.48;;;18.88;;
69207;SDS011;56321;47.662;8.878;2023-03-01T16:12:49;29.40;;;15.60;;
69207;SDS011;56321;47.662;8.878;2023-03-01T16:15:18;25.35;;;12.82;;
69207;SDS011;56321;47.662;8.878;2023-03-01T16:17:51;27.75;;;13.52;;
69207;SDS011;56321;47.662;8.878;2023-03-01T16:20:17;27.07;;;14.23;;
69207;SDS011;56321;47.662;8.878;2023-03-01T16:22:43;25.90;;;12.77;;
69207;SDS011;56321;47.662;8.878;2023-03-01T16:25:10;42.03;;;25.05;;
69207;SDS011;56321;47.662;8.878;2023-03-01T16:27:43;27.25;;;14.05;;
69207;SDS011;56321;47.662;8.878;2023-03-01T16:30:10;39.60;;;27.90;;
69207;SDS011;56321;47.662;8.878;2023-03-01T16:32:38;34.37;;;21.90;;
69207;SDS011;56321;47.662;8.878;2023-03-01T16:35:04;84.35;;;57.33;;
69207;SDS011;56321;47.662;8.878;2023-03-01T16:37:31;97.88;;;60.25;;
69207;SDS011;56321;47.662;8.878;2023-03-01T16:39:58;58.00;;;36.95;;
69207;SDS011;56321;47.662;8.878;2023-03-01T16:42:24;26.30;;;13.90;;
69207;SDS011;56321;47.662;8.878;2023-03-01T16:44:54;36.60;;;21.60;;
69207;SDS011;56321;47.662;8.878;2023-03-01T16:47:20;32.53;;;19.33;;
69207;SDS011;56321;47.662;8.878;2023-03-01T16:49:46;31.75;;;19.58;;
69207;SDS011;56321;47.662;8.878;2023-03-01T16:52:11;26.20;;;13.30;;
69207;SDS011;56321;47.662;8.878;2023-03-01T16:54:36;31.63;;;17.00;;